Time,TemperatureF,DewpointF,PressureIn,WindDirection,WindDirectionDegrees,WindSpeedMPH,WindSpeedGustMPH,Humidity,HourlyPrecipIn,Conditions,Clouds,dailyrainin,SoftwareType,DateUTC
2013-08-16 00:12:00,54.3,52.0,30.10,NE,46,0.0,0.0,93,0.00,,,0.00,weatherlink.com 1.10,2013-08-16 04:12:00,
2013-08-16 00:27:00,54.1,53.0,30.10,NE,46,0.0,0.0,94,0.00,,,0.00,weatherlink.com 1.10,2013-08-16 04:27:00,
2013-08-16 00:42:00,53.9,52.0,30.10,NE,46,0.0,0.0,94,0.00,,,0.00,weatherlink.com 1.10,2013-08-16 04:42:00,
2013-08-16 00:57:00,53.6,52.0,30.09,NE,46,0.0,0.0,94,0.00,,,0.00,weatherlink.com 1.10,2013-08-16 04:57:00,
2013-08-16 01:12:00,53.5,52.0,30.09,NE,46,0.0,0.0,95,0.00,,,0.00,weatherlink.com 1.10,2013-08-16 05:12:00,
2013-08-16 01:27:00,53.1,52.0,30.09,NE,46,0.0,0.0,95,0.00,,,0.00,weatherlink.com 1.10,2013-08-16 05:27:00,
2013-08-16 01:42:00,52.8,52.0,30.09,NE,46,0.0,0.0,95,0.00,,,0.00,weatherlink.com 1.10,2013-08-16 05:42:00,
2013-08-16 01:57:00,52.6,51.0,30.09,NE,46,0.0,0.0,95,0.00,,,0.00,weatherlink.com 1.10,2013-08-16 05:57:00,
2013-08-16 02:13:00,52.4,51.0,30.09,NE,46,0.0,0.0,96,0.00,,,0.00,weatherlink.com 1.10,2013-08-16 06:13:00,
2013-08-16 02:28:00,52.2,51.0,30.08,NE,46,0.0,0.0,96,0.00,,,0.00,weatherlink.com 1.10,2013-08-16 06:28:00,
2013-08-16 02:43:00,52.1,51.0,30.08,NE,46,0.0,0.0,96,0.00,,,0.00,weatherlink.com 1.10,2013-08-16 06:43:00,
2013-08-16 02:58:00,51.9,51.0,30.08,NE,46,0.0,0.0,96,0.00,,,0.00,weatherlink.com 1.10,2013-08-16 06:58:00,
2013-08-16 03:13:00,51.5,50.0,30.08,NE,46,0.0,0.0,96,0.00,,,0.00,weatherlink.com 1.10,2013-08-16 07:13:00,
2013-08-16 03:28:00,51.3,50.0,30.09,NE,46,0.0,0.0,96,0.00,,,0.00,weatherlink.com 1.10,2013-08-16 07:28:00,
2013-08-16 03:43:00,51.1,50.0,30.08,NE,46,0.0,0.0,96,0.00,,,0.00,weatherlink.com 1.10,2013-08-16 07:43:00,
2013-08-16 03:58:00,50.9,50.0,30.08,NE,46,0.0,0.0,96,0.00,,,0.00,weatherlink.com 1.10,2013-08-16 07:58:00,
2013-08-16 04:13:00,50.7,50.0,30.08,NE,46,0.0,0.0,97,0.00,,,0.00,weatherlink.com 1.10,2013-08-16 08:13:00,
2013-08-16 04:28:00,50.5,49.0,30.09,NE,46,0.0,0.0,96,0.00,,,0.00,weatherlink.com 1.10,2013-08-16 08:28:00,
2013-08-16 04:43:00,50.3,50.0,30.09,NE,46,0.0,0.0,97,0.00,,,0.00,weatherlink.com 1.10,2013-08-16 08:43:00,
2013-08-16 04:58:00,50.3,50.0,30.09,NE,46,0.0,0.0,97,0.00,,,0.00,weatherlink.com 1.10,2013-08-16 08:58:00,
2013-08-16 05:13:00,50.2,49.0,30.08,NE,46,0.0,0.0,97,0.00,,,0.00,weatherlink.com 1.10,2013-08-16 09:13:00,
2013-08-16 05:28:00,50.0,49.0,30.09,NE,46,0.0,0.0,97,0.00,,,0.00,weatherlink.com 1.10,2013-08-16 09:28:00,
2013-08-16 05:43:00,49.7,49.0,30.09,NE,46,0.0,0.0,97,0.00,,,0.00,weatherlink.com 1.10,2013-08-16 09:43:00,
2013-08-16 05:58:00,49.6,49.0,30.10,NE,46,0.0,0.0,97,0.00,,,0.00,weatherlink.com 1.10,2013-08-16 09:58:00,
2013-08-16 06:13:00,49.3,49.0,30.10,NE,46,0.0,0.0,97,0.00,,,0.00,weatherlink.com 1.10,2013-08-16 10:13:00,
2013-08-16 06:28:00,49.0,48.0,30.11,NE,46,0.0,0.0,97,0.00,,,0.00,weatherlink.com 1.10,2013-08-16 10:28:00,
2013-08-16 06:43:00,48.9,48.0,30.11,NE,46,0.0,0.0,97,0.00,,,0.00,weatherlink.com 1.10,2013-08-16 10:43:00,
2013-08-16 06:58:00,49.0,49.0,30.11,NE,46,0.0,0.0,98,0.00,,,0.00,weatherlink.com 1.10,2013-08-16 10:58:00,
2013-08-16 07:13:00,49.7,49.0,30.12,NE,46,0.0,0.0,98,0.00,,,0.00,weatherlink.com 1.10,2013-08-16 11:13:00,
2013-08-16 07:28:00,51.5,51.0,30.12,NE,46,0.0,0.0,99,0.00,,,0.00,weatherlink.com 1.10,2013-08-16 11:28:00,
2013-08-16 07:43:00,53.5,53.0,30.12,ESE,119,2.0,2.0,97,0.00,,,0.00,weatherlink.com 1.10,2013-08-16 11:43:00,
2013-08-16 07:58:00,55.9,54.0,30.12,ESE,119,0.0,0.0,94,0.00,,,0.00,weatherlink.com 1.10,2013-08-16 11:58:00,
2013-08-16 08:13:00,58.6,56.0,30.12,East,98,0.0,2.0,90,0.00,,,0.00,weatherlink.com 1.10,2013-08-16 12:13:00,
2013-08-16 08:28:00,60.2,56.0,30.12,East,98,1.0,3.0,85,0.00,,,0.00,weatherlink.com 1.10,2013-08-16 12:28:00,
2013-08-16 08:43:00,61.5,56.0,30.12,East,100,1.0,2.0,83,0.00,,,0.00,weatherlink.com 1.10,2013-08-16 12:43:00,
2013-08-16 08:58:00,62.2,57.0,30.12,SSE,155,1.0,4.0,83,0.00,,,0.00,weatherlink.com 1.10,2013-08-16 12:58:00,
2013-08-16 09:13:00,64.0,58.0,30.12,SE,124,0.0,2.0,80,0.00,,,0.00,weatherlink.com 1.10,2013-08-16 13:13:00,
2013-08-16 09:29:00,65.1,57.0,30.12,NW,323,0.0,3.0,76,0.00,,,0.00,weatherlink.com 1.10,2013-08-16 13:29:00,
2013-08-16 09:44:00,67.0,60.0,30.12,East,82,1.0,2.0,77,0.00,,,0.00,weatherlink.com 1.10,2013-08-16 13:44:00,
2013-08-16 09:59:00,68.3,59.0,30.12,WNW,293,1.0,4.0,71,0.00,,,0.00,weatherlink.com 1.10,2013-08-16 13:59:00,
2013-08-16 10:14:00,70.4,58.0,30.12,North,4,0.0,2.0,66,0.00,,,0.00,weatherlink.com 1.10,2013-08-16 14:14:00,
2013-08-16 10:29:00,70.4,59.0,30.12,NE,35,1.0,5.0,67,0.00,,,0.00,weatherlink.com 1.10,2013-08-16 14:29:00,
2013-08-16 10:44:00,71.0,59.0,30.12,ESE,112,3.0,4.0,65,0.00,,,0.00,weatherlink.com 1.10,2013-08-16 14:44:00,
2013-08-16 10:59:00,72.1,58.0,30.12,West,273,1.0,4.0,62,0.00,,,0.00,weatherlink.com 1.10,2013-08-16 14:59:00,
2013-08-16 11:14:00,73.0,59.0,30.12,SE,125,0.0,5.0,62,0.00,,,0.00,weatherlink.com 1.10,2013-08-16 15:14:00,
2013-08-16 11:29:00,73.8,58.0,30.12,SE,124,1.0,5.0,58,0.00,,,0.00,weatherlink.com 1.10,2013-08-16 15:29:00,
2013-08-16 11:45:00,74.5,57.0,30.12,East,97,1.0,5.0,55,0.00,,,0.00,weatherlink.com 1.10,2013-08-16 15:45:00,
2013-08-16 11:59:00,73.8,57.0,30.11,ESE,108,3.0,8.0,56,0.00,,,0.00,weatherlink.com 1.10,2013-08-16 15:59:00,
2013-08-16 12:14:00,74.9,55.0,30.11,NE,42,3.0,8.0,51,0.00,,,0.00,weatherlink.com 1.10,2013-08-16 16:14:00,
2013-08-16 12:29:00,75.0,56.0,30.11,East,84,6.0,6.0,51,0.00,,,0.00,weatherlink.com 1.10,2013-08-16 16:29:00,
2013-08-16 12:44:00,74.7,56.0,30.11,NE,49,4.0,8.0,52,0.00,,,0.00,weatherlink.com 1.10,2013-08-16 16:44:00,
2013-08-16 12:59:00,74.2,55.0,30.11,SE,137,3.0,4.0,51,0.00,,,0.00,weatherlink.com 1.10,2013-08-16 16:59:00,
2013-08-16 13:14:00,76.0,57.0,30.11,SE,126,5.0,6.0,52,0.00,,,0.00,weatherlink.com 1.10,2013-08-16 17:14:00,
2013-08-16 13:29:00,76.8,57.0,30.11,NE,40,4.0,8.0,50,0.00,,,0.00,weatherlink.com 1.10,2013-08-16 17:29:00,
2013-08-16 13:44:00,76.4,55.0,30.11,ENE,74,3.0,9.0,47,0.00,,,0.00,weatherlink.com 1.10,2013-08-16 17:44:00,
2013-08-16 13:59:00,75.8,57.0,30.10,West,281,0.0,5.0,52,0.00,,,0.00,weatherlink.com 1.10,2013-08-16 17:59:00,
2013-08-16 14:14:00,76.2,57.0,30.10,ENE,58,4.0,6.0,52,0.00,,,0.00,weatherlink.com 1.10,2013-08-16 18:14:00,
2013-08-16 14:29:00,76.0,55.0,30.09,ENE,64,5.0,11.0,49,0.00,,,0.00,weatherlink.com 1.10,2013-08-16 18:29:00,
2013-08-16 14:44:00,76.4,55.0,30.09,East,98,0.0,6.0,48,0.00,,,0.00,weatherlink.com 1.10,2013-08-16 18:44:00,
2013-08-16 14:59:00,77.3,56.0,30.09,NE,50,5.0,8.0,48,0.00,,,0.00,weatherlink.com 1.10,2013-08-16 18:59:00,
2013-08-16 15:14:00,76.3,55.0,30.09,East,96,2.0,8.0,48,0.00,,,0.00,weatherlink.com 1.10,2013-08-16 19:14:00,
2013-08-16 15:29:00,77.1,56.0,30.08,NNE,27,1.0,7.0,48,0.00,,,0.00,weatherlink.com 1.10,2013-08-16 19:29:00,
2013-08-16 15:44:00,78.1,56.0,30.08,East,96,0.0,6.0,46,0.00,,,0.00,weatherlink.com 1.10,2013-08-16 19:44:00,
2013-08-16 15:59:00,77.4,54.0,30.08,ENE,62,4.0,11.0,45,0.00,,,0.00,weatherlink.com 1.10,2013-08-16 19:59:00,
2013-08-16 16:14:00,76.4,55.0,30.08,NE,37,4.0,5.0,48,0.00,,,0.00,weatherlink.com 1.10,2013-08-16 20:14:00,
2013-08-16 16:29:00,78.5,58.0,30.08,WNW,289,0.0,3.0,50,0.00,,,0.00,weatherlink.com 1.10,2013-08-16 20:29:00,
2013-08-16 16:44:00,78.5,55.0,30.08,ESE,110,8.0,8.0,44,0.00,,,0.00,weatherlink.com 1.10,2013-08-16 20:44:00,
2013-08-16 16:59:00,78.0,54.0,30.08,NE,39,0.0,8.0,44,0.00,,,0.00,weatherlink.com 1.10,2013-08-16 20:59:00,
2013-08-16 17:14:00,77.6,55.0,30.08,SE,126,4.0,8.0,45,0.00,,,0.00,weatherlink.com 1.10,2013-08-16 21:14:00,
2013-08-16 17:29:00,76.4,56.0,30.09,NE,39,0.0,5.0,49,0.00,,,0.00,weatherlink.com 1.10,2013-08-16 21:29:00,
2013-08-16 18:00:00,77.6,56.0,30.09,SE,135,1.0,6.0,48,0.00,,,0.00,weatherlink.com 1.10,2013-08-16 22:00:00,
2013-08-16 18:15:00,76.4,57.0,30.09,NE,48,0.0,5.0,51,0.00,,,0.00,weatherlink.com 1.10,2013-08-16 22:15:00,
2013-08-16 18:30:00,75.3,55.0,30.09,NE,52,0.0,7.0,50,0.00,,,0.00,weatherlink.com 1.10,2013-08-16 22:30:00,
2013-08-16 18:45:00,75.0,55.0,30.09,ESE,107,1.0,6.0,50,0.00,,,0.00,weatherlink.com 1.10,2013-08-16 22:45:00,
2013-08-16 19:00:00,74.8,55.0,30.09,SE,125,0.0,5.0,51,0.00,,,0.00,weatherlink.com 1.10,2013-08-16 23:00:00,
2013-08-16 19:15:00,74.2,56.0,30.09,SE,127,3.0,4.0,54,0.00,,,0.00,weatherlink.com 1.10,2013-08-16 23:15:00,
2013-08-16 19:30:00,73.2,57.0,30.09,ESE,106,1.0,3.0,58,0.00,,,0.00,weatherlink.com 1.10,2013-08-16 23:30:00,
2013-08-16 19:45:00,71.2,58.0,30.10,East,97,2.0,3.0,63,0.00,,,0.00,weatherlink.com 1.10,2013-08-16 23:45:00,
2013-08-16 20:00:00,69.3,58.0,30.10,East,97,0.0,2.0,67,0.00,,,0.00,weatherlink.com 1.10,2013-08-17 00:00:00,
2013-08-16 20:15:00,67.8,58.0,30.10,East,97,0.0,0.0,70,0.00,,,0.00,weatherlink.com 1.10,2013-08-17 00:15:00,
2013-08-16 20:30:00,66.4,58.0,30.10,East,97,0.0,0.0,73,0.00,,,0.00,weatherlink.com 1.10,2013-08-17 00:30:00,
2013-08-16 20:45:00,64.9,58.0,30.11,East,97,0.0,0.0,77,0.00,,,0.00,weatherlink.com 1.10,2013-08-17 00:45:00,
2013-08-16 21:00:00,63.6,57.0,30.11,East,97,0.0,0.0,80,0.00,,,0.00,weatherlink.com 1.10,2013-08-17 01:00:00,
2013-08-16 21:15:00,62.4,57.0,30.12,East,97,0.0,0.0,83,0.00,,,0.00,weatherlink.com 1.10,2013-08-17 01:15:00,
2013-08-16 21:30:00,61.4,57.0,30.13,East,97,0.0,0.0,86,0.00,,,0.00,weatherlink.com 1.10,2013-08-17 01:30:00,
2013-08-16 21:45:00,60.7,57.0,30.14,East,97,0.0,0.0,88,0.00,,,0.00,weatherlink.com 1.10,2013-08-17 01:45:00,
2013-08-16 22:00:00,60.0,57.0,30.13,East,97,0.0,0.0,90,0.00,,,0.00,weatherlink.com 1.10,2013-08-17 02:00:00,
2013-08-16 22:15:00,59.4,57.0,30.14,East,97,0.0,0.0,92,0.00,,,0.00,weatherlink.com 1.10,2013-08-17 02:15:00,
2013-08-16 22:30:00,59.0,57.0,30.13,East,97,0.0,0.0,93,0.00,,,0.00,weatherlink.com 1.10,2013-08-17 02:30:00,
2013-08-16 22:45:00,58.5,57.0,30.13,East,97,0.0,0.0,93,0.00,,,0.00,weatherlink.com 1.10,2013-08-17 02:45:00,
2013-08-16 23:00:00,58.0,56.0,30.14,East,97,0.0,0.0,93,0.00,,,0.00,weatherlink.com 1.10,2013-08-17 03:00:00,
2013-08-16 23:15:00,57.7,56.0,30.14,East,97,0.0,0.0,94,0.00,,,0.00,weatherlink.com 1.10,2013-08-17 03:15:00,
2013-08-16 23:30:00,57.3,56.0,30.14,East,97,0.0,0.0,94,0.00,,,0.00,weatherlink.com 1.10,2013-08-17 03:30:00,
2013-08-16 23:45:00,56.9,55.0,30.14,East,97,0.0,0.0,94,0.00,,,0.00,weatherlink.com 1.10,2013-08-17 03:45:00,